KAJO

Corona Municipal Airport

Corona, California, USA
METAR KAJO 241356Z AUTO 00000KT 10SM OVC016 17/14 A2991 RMK AO2 SLP137 T01720139 $
Observed Flight Rules
Jun-24 @ 13:56 UTC (an hour ago) Marginal Visual Flight Rules
Visibility Clouds
10 miles
  • Overcast at 1,600' AGL
Temperatures Readings
Current 17°C / 63°F
Dewpoint 14°C / 57°F
Humidity 83%
Altimeter 29.91" Hg
Pressure 1013.7 hPa
Elevation 163
METAR KAJO 241356Z AUTO 00000KT 10SM OVC016 17/14 A2991 RMK AO2 SLP137 T01720139 $
Observed Flight Rules
Jun-24 @ 13:56 UTC
(an hour ago)
MVFR
Clouds
  • Overcast at 1,600' AGL
Temperature Dewpoint
17°C / 63°F 14°C / 57°F
Humidity Altimeter Pressure
83% 29.91" Hg 1013.7 hPa